Huvudsida
METAR-TAF:

METAR-TAF

Flygplatser :

Jijel Ferhat Abbas Airport

Jijel, Algeriet

latitud: 36-53N, longitud: 005-49E, höjd: 2 m

Aktuellt väderrapport

Denna rapport gjordes för 53 minuter sedan, klockan 14:00 UTC
Vind 6 kt från nordväst
Temperatur 30°C
Fuktighet 59%
Tryck 1015 hPa
Sikt 10 km eller mer
Få moln på en höjd av 2300 ft

METAR: DAAV 261400Z 31006KT 9999 FEW023 30/21 Q1015

Tid: 15:53 (14:53 UTC)

Väderprognos

Denna rapport gjordes för 3 timmar och 53 minuter sedan, klockan 11:00 UTC
Prognos gäller från 26 kl. 12 UTC till 27 kl. 12 UTC
Vind 10 kt från nordväst
Sikt 10 km eller mer
Inga moln under 1 500 m eller inga cumulonimbus
Blir
från 26 kl. 20 UTC till 26 kl. 22 UTC
Vind 6 kt från syd/sydväst
Blir
från 27 kl. 10 UTC till 27 kl. 12 UTC
Vind 10 kt från nord/nordost

TAF: DAAV 261100Z 2612/2712 32010KT CAVOK BECMG 2620/2622 20006KT BECMG 2710/2712 02010KT

Aktuella väderrapporter och prognoser från 4000 flygplatser (METAR- och TAF-rapporter).

De tillgängliga stationerna syns som gula och röda prickar på kartan.

För musen över prickarna för att se namnen på stationerna.

Klicka sedan för att få väderrapporter och prognoser.

För att ändra kartan: Klicka på de gröna knapparna med ett svart kors på för att zooma in; den gröna knappen med ett streck på för att zooma ut; eller på de gröna pilarna för angränsande kartor.


METAR-TAF: